Terminal Aerodrome Forecast
Issued by NWS Tallahassee, FL

Home | Current Version | Previous Version | Text Only | Print | Product List | Glossary On
Versions: 1 2 3 4 5 6 7 8 9 10 11 12 13 14 15
000
FTUS42 KTAE 222300
TAFTLH
TAF
KTLH 222328Z 2300/2324 36005KT P6SM SCT015 BKN080
     FM230200 03004KT P6SM FEW100 SCT250
     FM230900 04003KT P6SM SCT010
     FM231500 04008G16KT P6SM SCT030=

USA.gov is the U.S. government's official web portal to all federal, state and local government web resources and services.